sensor_id;sensor_type;location;lat;lon;timestamp;temperature;humidity
34837;DHT22;21053;50.848;4.652;2023-02-28T00:00:50;1.20;99.40
34837;DHT22;21053;50.848;4.652;2023-02-28T00:03:16;1.10;99.40
34837;DHT22;21053;50.848;4.652;2023-02-28T00:05:45;1.10;99.50
34837;DHT22;21053;50.848;4.652;2023-02-28T00:14:25;1.10;99.80
34837;DHT22;21053;50.848;4.652;2023-02-28T00:16:51;1.10;99.90
34837;DHT22;21053;50.848;4.652;2023-02-28T00:19:18;1.10;99.90
34837;DHT22;21053;50.848;4.652;2023-02-28T00:21:44;1.10;99.90
34837;DHT22;21053;50.848;4.652;2023-02-28T00:24:10;1.10;99.90
34837;DHT22;21053;50.848;4.652;2023-02-28T00:26:36;1.10;99.90
34837;DHT22;21053;50.848;4.652;2023-02-28T00:29:05;1.10;99.90
34837;DHT22;21053;50.848;4.652;2023-02-28T00:31:32;1.20;99.90
34837;DHT22;21053;50.848;4.652;2023-02-28T00:33:59;1.20;99.90
34837;DHT22;21053;50.848;4.652;2023-02-28T00:36:26;1.20;99.90
34837;DHT22;21053;50.848;4.652;2023-02-28T00:38:53;1.20;99.90
34837;DHT22;21053;50.848;4.652;2023-02-28T00:41:18;1.20;99.90
34837;DHT22;21053;50.848;4.652;2023-02-28T00:43:45;1.20;99.90
34837;DHT22;21053;50.848;4.652;2023-02-28T00:46:11;1.20;99.90
34837;DHT22;21053;50.848;4.652;2023-02-28T00:48:40;1.10;99.90
34837;DHT22;21053;50.848;4.652;2023-02-28T00:51:06;2.20;99.90
34837;DHT22;21053;50.848;4.652;2023-02-28T00:53:33;1.10;99.90
34837;DHT22;21053;50.848;4.652;2023-02-28T00:56:00;1.20;99.90
34837;DHT22;21053;50.848;4.652;2023-02-28T00:58:29;1.30;99.90
34837;DHT22;21053;50.848;4.652;2023-02-28T01:00:55;1.20;99.90
34837;DHT22;21053;50.848;4.652;2023-02-28T01:03:21;1.20;99.90
34837;DHT22;21053;50.848;4.652;2023-02-28T01:05:49;1.20;99.90
34837;DHT22;21053;50.848;4.652;2023-02-28T01:08:17;1.10;99.90
34837;DHT22;21053;50.848;4.652;2023-02-28T01:10:45;1.20;99.90
34837;DHT22;21053;50.848;4.652;2023-02-28T01:13:12;1.10;99.90
34837;DHT22;21053;50.848;4.652;2023-02-28T01:15:42;1.20;99.90
34837;DHT22;21053;50.848;4.652;2023-02-28T01:18:09;1.20;99.90
34837;DHT22;21053;50.848;4.652;2023-02-28T01:20:38;1.10;99.90
34837;DHT22;21053;50.848;4.652;2023-02-28T01:23:05;1.10;99.90
34837;DHT22;21053;50.848;4.652;2023-02-28T01:25:37;1.10;99.90
34837;DHT22;21053;50.848;4.652;2023-02-28T01:28:05;1.00;99.90
34837;DHT22;21053;50.848;4.652;2023-02-28T01:30:33;1.00;99.90
34837;DHT22;21053;50.848;4.652;2023-02-28T01:32:59;0.90;99.90
34837;DHT22;21053;50.848;4.652;2023-02-28T01:35:25;0.90;99.90
34837;DHT22;21053;50.848;4.652;2023-02-28T01:37:52;0.80;99.90
34837;DHT22;21053;50.848;4.652;2023-02-28T01:40:17;0.80;99.90
34837;DHT22;21053;50.848;4.652;2023-02-28T01:42:43;0.80;99.90
34837;DHT22;21053;50.848;4.652;2023-02-28T01:45:29;0.60;99.90
34837;DHT22;21053;50.848;4.652;2023-02-28T01:48:05;0.70;99.90
34837;DHT22;21053;50.848;4.652;2023-02-28T01:50:37;0.70;99.90
34837;DHT22;21053;50.848;4.652;2023-02-28T01:53:08;0.70;99.90
34837;DHT22;21053;50.848;4.652;2023-02-28T01:55:37;0.70;99.90
34837;DHT22;21053;50.848;4.652;2023-02-28T01:58:08;0.40;99.90
34837;DHT22;21053;50.848;4.652;2023-02-28T02:00:34;0.50;99.90
34837;DHT22;21053;50.848;4.652;2023-02-28T02:03:07;0.50;99.90
34837;DHT22;21053;50.848;4.652;2023-02-28T02:06:43;0.60;99.90
34837;DHT22;21053;50.848;4.652;2023-02-28T02:09:11;0.60;99.90
34837;DHT22;21053;50.848;4.652;2023-02-28T02:11:41;0.60;99.90
34837;DHT22;21053;50.848;4.652;2023-02-28T02:14:21;0.70;99.90
34837;DHT22;21053;50.848;4.652;2023-02-28T02:17:01;0.60;99.90
34837;DHT22;21053;50.848;4.652;2023-02-28T02:25:31;0.50;99.90
34837;DHT22;21053;50.848;4.652;2023-02-28T02:36:42;0.50;99.90
34837;DHT22;21053;50.848;4.652;2023-02-28T02:39:31;0.40;99.90
34837;DHT22;21053;50.848;4.652;2023-02-28T02:42:13;0.30;99.90
34837;DHT22;21053;50.848;4.652;2023-02-28T02:44:46;0.30;99.90
34837;DHT22;21053;50.848;4.652;2023-02-28T02:47:18;0.40;99.90
34837;DHT22;21053;50.848;4.652;2023-02-28T02:49:55;0.40;99.90
34837;DHT22;21053;50.848;4.652;2023-02-28T02:52:23;0.50;99.90
34837;DHT22;21053;50.848;4.652;2023-02-28T02:54:55;0.50;99.90
34837;DHT22;21053;50.848;4.652;2023-02-28T02:57:49;0.50;99.90
34837;DHT22;21053;50.848;4.652;2023-02-28T03:00:20;0.50;99.90
34837;DHT22;21053;50.848;4.652;2023-02-28T03:02:50;0.50;99.90
34837;DHT22;21053;50.848;4.652;2023-02-28T03:05:21;0.40;99.90
34837;DHT22;21053;50.848;4.652;2023-02-28T03:07:50;0.30;99.90
34837;DHT22;21053;50.848;4.652;2023-02-28T03:10:29;0.20;99.90
34837;DHT22;21053;50.848;4.652;2023-02-28T03:13:21;0.10;99.90
34837;DHT22;21053;50.848;4.652;2023-02-28T03:33:17;-0.20;99.90
34837;DHT22;21053;50.848;4.652;2023-02-28T03:35:52;-0.20;99.90
34837;DHT22;21053;50.848;4.652;2023-02-28T03:41:16;-0.30;99.90
34837;DHT22;21053;50.848;4.652;2023-02-28T03:43:53;-0.30;99.90
34837;DHT22;21053;50.848;4.652;2023-02-28T03:46:25;-0.40;99.90
34837;DHT22;21053;50.848;4.652;2023-02-28T03:49:14;-0.40;99.90
34837;DHT22;21053;50.848;4.652;2023-02-28T03:51:45;-0.60;99.90
34837;DHT22;21053;50.848;4.652;2023-02-28T03:54:42;-0.50;99.90
34837;DHT22;21053;50.848;4.652;2023-02-28T03:57:32;-0.60;99.90
34837;DHT22;21053;50.848;4.652;2023-02-28T04:00:14;-0.60;99.90
34837;DHT22;21053;50.848;4.652;2023-02-28T04:02:41;-0.60;99.90
34837;DHT22;21053;50.848;4.652;2023-02-28T04:05:07;-0.60;99.90
34837;DHT22;21053;50.848;4.652;2023-02-28T04:07:35;-0.80;99.90
34837;DHT22;21053;50.848;4.652;2023-02-28T04:10:02;-0.70;99.90
34837;DHT22;21053;50.848;4.652;2023-02-28T04:12:28;-0.60;99.90
34837;DHT22;21053;50.848;4.652;2023-02-28T04:14:54;-0.60;99.90
34837;DHT22;21053;50.848;4.652;2023-02-28T04:17:22;-0.60;99.90
34837;DHT22;21053;50.848;4.652;2023-02-28T04:19:49;-0.40;99.90
34837;DHT22;21053;50.848;4.652;2023-02-28T04:22:18;-0.40;99.90
34837;DHT22;21053;50.848;4.652;2023-02-28T04:24:45;-0.20;99.90
34837;DHT22;21053;50.848;4.652;2023-02-28T04:27:16;-0.20;99.90
34837;DHT22;21053;50.848;4.652;2023-02-28T04:29:42;-0.20;99.90
34837;DHT22;21053;50.848;4.652;2023-02-28T04:32:10;-0.40;99.90
34837;DHT22;21053;50.848;4.652;2023-02-28T04:34:36;-0.40;99.90
34837;DHT22;21053;50.848;4.652;2023-02-28T04:37:02;-0.40;99.90
34837;DHT22;21053;50.848;4.652;2023-02-28T04:39:35;-0.40;99.90
34837;DHT22;21053;50.848;4.652;2023-02-28T04:42:03;-0.40;99.90
34837;DHT22;21053;50.848;4.652;2023-02-28T04:44:28;-0.50;99.90
34837;DHT22;21053;50.848;4.652;2023-02-28T04:46:54;-0.60;99.90
34837;DHT22;21053;50.848;4.652;2023-02-28T04:49:22;-0.60;99.90
34837;DHT22;21053;50.848;4.652;2023-02-28T04:51:47;-0.60;99.90
34837;DHT22;21053;50.848;4.652;2023-02-28T04:54:17;-0.60;99.90
34837;DHT22;21053;50.848;4.652;2023-02-28T04:56:43;-0.50;99.90
34837;DHT22;21053;50.848;4.652;2023-02-28T04:59:11;-0.50;99.90
34837;DHT22;21053;50.848;4.652;2023-02-28T05:01:37;-0.50;99.90
34837;DHT22;21053;50.848;4.652;2023-02-28T05:04:04;-0.40;99.90
34837;DHT22;21053;50.848;4.652;2023-02-28T05:06:33;-0.40;99.90
34837;DHT22;21053;50.848;4.652;2023-02-28T05:09:00;0.70;99.90
34837;DHT22;21053;50.848;4.652;2023-02-28T05:11:30;-0.20;99.90
34837;DHT22;21053;50.848;4.652;2023-02-28T05:14:01;-0.10;99.90
34837;DHT22;21053;50.848;4.652;2023-02-28T05:16:31;-0.10;99.90
34837;DHT22;21053;50.848;4.652;2023-02-28T05:19:00;-0.20;99.90
34837;DHT22;21053;50.848;4.652;2023-02-28T05:21:36;-0.10;99.90
34837;DHT22;21053;50.848;4.652;2023-02-28T05:24:11;-0.20;99.90
34837;DHT22;21053;50.848;4.652;2023-02-28T05:26:39;-0.10;99.90
34837;DHT22;21053;50.848;4.652;2023-02-28T05:29:06;-0.30;99.90
34837;DHT22;21053;50.848;4.652;2023-02-28T05:31:33;-0.20;99.90
34837;DHT22;21053;50.848;4.652;2023-02-28T05:33:59;-0.20;99.90
34837;DHT22;21053;50.848;4.652;2023-02-28T05:36:24;-0.20;99.90
34837;DHT22;21053;50.848;4.652;2023-02-28T05:38:52;-0.20;99.90
34837;DHT22;21053;50.848;4.652;2023-02-28T05:41:20;-0.20;99.90
34837;DHT22;21053;50.848;4.652;2023-02-28T05:43:47;-0.10;99.90
34837;DHT22;21053;50.848;4.652;2023-02-28T05:46:13;-0.10;99.90
34837;DHT22;21053;50.848;4.652;2023-02-28T05:48:41;0.00;99.90
34837;DHT22;21053;50.848;4.652;2023-02-28T05:51:08;0.00;99.90
34837;DHT22;21053;50.848;4.652;2023-02-28T05:56:09;0.00;99.90
34837;DHT22;21053;50.848;4.652;2023-02-28T05:58:36;0.20;99.90
34837;DHT22;21053;50.848;4.652;2023-02-28T06:03:56;0.20;99.90
34837;DHT22;21053;50.848;4.652;2023-02-28T06:06:21;0.30;99.90
34837;DHT22;21053;50.848;4.652;2023-02-28T06:08:49;0.40;99.90
34837;DHT22;21053;50.848;4.652;2023-02-28T06:11:16;0.20;99.90
34837;DHT22;21053;50.848;4.652;2023-02-28T06:13:44;0.30;99.90
34837;DHT22;21053;50.848;4.652;2023-02-28T06:16:11;0.40;99.90
34837;DHT22;21053;50.848;4.652;2023-02-28T06:18:37;0.20;99.90
34837;DHT22;21053;50.848;4.652;2023-02-28T06:21:06;0.20;99.90
34837;DHT22;21053;50.848;4.652;2023-02-28T06:23:32;0.10;99.90
34837;DHT22;21053;50.848;4.652;2023-02-28T06:25:59;0.10;99.90
34837;DHT22;21053;50.848;4.652;2023-02-28T06:28:29;0.20;99.90
34837;DHT22;21053;50.848;4.652;2023-02-28T06:30:55;0.20;99.90
34837;DHT22;21053;50.848;4.652;2023-02-28T06:33:21;0.10;99.90
34837;DHT22;21053;50.848;4.652;2023-02-28T06:35:53;0.20;99.90
34837;DHT22;21053;50.848;4.652;2023-02-28T06:38:19;0.20;99.90
34837;DHT22;21053;50.848;4.652;2023-02-28T06:40:54;0.30;99.90
34837;DHT22;21053;50.848;4.652;2023-02-28T06:43:22;0.40;99.90
34837;DHT22;21053;50.848;4.652;2023-02-28T06:45:54;0.30;99.90
34837;DHT22;21053;50.848;4.652;2023-02-28T06:48:23;0.30;99.90
34837;DHT22;21053;50.848;4.652;2023-02-28T06:50:52;0.30;99.90
34837;DHT22;21053;50.848;4.652;2023-02-28T06:53:21;0.20;99.90
34837;DHT22;21053;50.848;4.652;2023-02-28T06:55:47;0.30;99.90
34837;DHT22;21053;50.848;4.652;2023-02-28T06:58:14;0.40;99.90
34837;DHT22;21053;50.848;4.652;2023-02-28T07:00:44;0.30;99.90
34837;DHT22;21053;50.848;4.652;2023-02-28T07:03:12;0.30;99.90
34837;DHT22;21053;50.848;4.652;2023-02-28T07:05:39;0.30;99.90
34837;DHT22;21053;50.848;4.652;2023-02-28T07:08:06;0.30;99.90
34837;DHT22;21053;50.848;4.652;2023-02-28T07:10:33;0.40;99.90
34837;DHT22;21053;50.848;4.652;2023-02-28T07:12:59;0.30;99.90
34837;DHT22;21053;50.848;4.652;2023-02-28T07:15:26;0.30;99.90
34837;DHT22;21053;50.848;4.652;2023-02-28T07:17:55;0.40;99.90
34837;DHT22;21053;50.848;4.652;2023-02-28T07:20:22;0.50;99.90
34837;DHT22;21053;50.848;4.652;2023-02-28T07:22:49;0.70;99.90
34837;DHT22;21053;50.848;4.652;2023-02-28T07:25:27;0.90;99.90
34837;DHT22;21053;50.848;4.652;2023-02-28T07:27:55;1.00;99.90
34837;DHT22;21053;50.848;4.652;2023-02-28T07:30:21;0.80;99.90
34837;DHT22;21053;50.848;4.652;2023-02-28T07:32:48;0.90;99.90
34837;DHT22;21053;50.848;4.652;2023-02-28T07:35:14;0.90;99.90
34837;DHT22;21053;50.848;4.652;2023-02-28T07:37:46;1.00;99.90
34837;DHT22;21053;50.848;4.652;2023-02-28T07:41:55;1.20;99.90
34837;DHT22;21053;50.848;4.652;2023-02-28T07:44:21;1.30;99.90
34837;DHT22;21053;50.848;4.652;2023-02-28T07:46:48;1.30;99.90
34837;DHT22;21053;50.848;4.652;2023-02-28T07:49:17;1.30;99.90
34837;DHT22;21053;50.848;4.652;2023-02-28T07:51:44;1.40;99.90
34837;DHT22;21053;50.848;4.652;2023-02-28T07:54:09;1.50;99.90
34837;DHT22;21053;50.848;4.652;2023-02-28T07:56:35;1.60;99.90
34837;DHT22;21053;50.848;4.652;2023-02-28T07:59:01;1.60;99.90
34837;DHT22;21053;50.848;4.652;2023-02-28T08:01:30;1.70;99.90
34837;DHT22;21053;50.848;4.652;2023-02-28T08:03:57;1.80;99.90
34837;DHT22;21053;50.848;4.652;2023-02-28T08:06:24;1.80;99.90
34837;DHT22;21053;50.848;4.652;2023-02-28T08:08:51;1.90;99.90
34837;DHT22;21053;50.848;4.652;2023-02-28T08:11:20;1.90;99.90
34837;DHT22;21053;50.848;4.652;2023-02-28T08:13:47;2.00;99.90
34837;DHT22;21053;50.848;4.652;2023-02-28T08:16:16;2.00;99.90
34837;DHT22;21053;50.848;4.652;2023-02-28T08:18:48;2.00;99.90
34837;DHT22;21053;50.848;4.652;2023-02-28T08:21:16;1.90;99.90
34837;DHT22;21053;50.848;4.652;2023-02-28T08:23:42;2.00;99.90
34837;DHT22;21053;50.848;4.652;2023-02-28T08:26:11;2.10;99.90
34837;DHT22;21053;50.848;4.652;2023-02-28T08:28:38;2.20;99.90
34837;DHT22;21053;50.848;4.652;2023-02-28T08:31:09;2.10;99.40
34837;DHT22;21053;50.848;4.652;2023-02-28T08:33:39;2.10;99.70
34837;DHT22;21053;50.848;4.652;2023-02-28T08:36:07;2.10;99.70
34837;DHT22;21053;50.848;4.652;2023-02-28T08:38:33;2.10;99.90
34837;DHT22;21053;50.848;4.652;2023-02-28T08:41:11;2.10;99.90
34837;DHT22;21053;50.848;4.652;2023-02-28T08:43:40;2.10;99.90
34837;DHT22;21053;50.848;4.652;2023-02-28T08:46:07;2.20;99.90
34837;DHT22;21053;50.848;4.652;2023-02-28T08:48:36;2.30;99.50
34837;DHT22;21053;50.848;4.652;2023-02-28T08:51:16;2.40;98.60
34837;DHT22;21053;50.848;4.652;2023-02-28T08:53:47;2.40;98.70
34837;DHT22;21053;50.848;4.652;2023-02-28T08:56:17;2.50;98.50
34837;DHT22;21053;50.848;4.652;2023-02-28T08:58:46;2.50;98.10
34837;DHT22;21053;50.848;4.652;2023-02-28T09:01:20;2.60;97.90
34837;DHT22;21053;50.848;4.652;2023-02-28T09:03:48;2.50;97.70
34837;DHT22;21053;50.848;4.652;2023-02-28T09:06:16;2.60;98.40
34837;DHT22;21053;50.848;4.652;2023-02-28T09:08:43;2.60;98.10
34837;DHT22;21053;50.848;4.652;2023-02-28T09:11:10;2.70;97.50
34837;DHT22;21053;50.848;4.652;2023-02-28T09:13:38;2.80;96.90
34837;DHT22;21053;50.848;4.652;2023-02-28T09:16:13;2.80;95.80
34837;DHT22;21053;50.848;4.652;2023-02-28T09:18:45;4.70;96.60
34837;DHT22;21053;50.848;4.652;2023-02-28T09:21:15;2.90;96.40
34837;DHT22;21053;50.848;4.652;2023-02-28T09:23:43;5.90;96.00
34837;DHT22;21053;50.848;4.652;2023-02-28T09:26:16;2.80;95.40
34837;DHT22;21053;50.848;4.652;2023-02-28T09:28:43;2.90;95.40
34837;DHT22;21053;50.848;4.652;2023-02-28T09:31:16;3.10;95.00
34837;DHT22;21053;50.848;4.652;2023-02-28T09:33:48;3.20;94.50
34837;DHT22;21053;50.848;4.652;2023-02-28T09:36:17;3.30;94.10
34837;DHT22;21053;50.848;4.652;2023-02-28T09:38:45;3.40;93.60
34837;DHT22;21053;50.848;4.652;2023-02-28T09:41:21;3.30;92.30
34837;DHT22;21053;50.848;4.652;2023-02-28T09:43:53;3.50;92.80
34837;DHT22;21053;50.848;4.652;2023-02-28T09:46:40;3.70;92.20
34837;DHT22;21053;50.848;4.652;2023-02-28T09:49:16;3.70;92.40
34837;DHT22;21053;50.848;4.652;2023-02-28T09:52:27;3.80;92.00
34837;DHT22;21053;50.848;4.652;2023-02-28T09:55:27;3.90;90.70
34837;DHT22;21053;50.848;4.652;2023-02-28T09:57:56;4.20;90.40
34837;DHT22;21053;50.848;4.652;2023-02-28T10:00:38;5.70;88.50
34837;DHT22;21053;50.848;4.652;2023-02-28T10:03:50;7.80;79.00
34837;DHT22;21053;50.848;4.652;2023-02-28T10:06:26;10.40;67.70
34837;DHT22;21053;50.848;4.652;2023-02-28T10:09:02;12.00;58.60
34837;DHT22;21053;50.848;4.652;2023-02-28T10:11:32;13.30;55.90
34837;DHT22;21053;50.848;4.652;2023-02-28T10:14:23;13.10;53.90
34837;DHT22;21053;50.848;4.652;2023-02-28T10:17:12;11.80;54.90
34837;DHT22;21053;50.848;4.652;2023-02-28T10:20:02;9.60;59.90
34837;DHT22;21053;50.848;4.652;2023-02-28T10:23:21;7.80;61.40
34837;DHT22;21053;50.848;4.652;2023-02-28T10:25:55;7.10;67.50
34837;DHT22;21053;50.848;4.652;2023-02-28T10:28:25;7.60;65.50
34837;DHT22;21053;50.848;4.652;2023-02-28T10:30:54;9.10;62.50
34837;DHT22;21053;50.848;4.652;2023-02-28T10:33:33;10.30;59.20
34837;DHT22;21053;50.848;4.652;2023-02-28T10:36:03;11.70;56.80
34837;DHT22;21053;50.848;4.652;2023-02-28T10:38:37;12.60;55.60
34837;DHT22;21053;50.848;4.652;2023-02-28T10:41:12;14.00;52.50
34837;DHT22;21053;50.848;4.652;2023-02-28T10:43:42;15.90;49.90
34837;DHT22;21053;50.848;4.652;2023-02-28T10:46:15;17.30;47.10
34837;DHT22;21053;50.848;4.652;2023-02-28T10:49:07;17.00;44.20
34837;DHT22;21053;50.848;4.652;2023-02-28T10:51:40;17.50;44.20
34837;DHT22;21053;50.848;4.652;2023-02-28T10:54:19;16.50;44.70
34837;DHT22;21053;50.848;4.652;2023-02-28T10:57:17;16.60;42.70
34837;DHT22;21053;50.848;4.652;2023-02-28T10:59:46;15.20;44.00
34837;DHT22;21053;50.848;4.652;2023-02-28T11:02:34;13.40;46.40
34837;DHT22;21053;50.848;4.652;2023-02-28T11:05:21;11.70;49.90
34837;DHT22;21053;50.848;4.652;2023-02-28T11:08:17;12.50;50.40
34837;DHT22;21053;50.848;4.652;2023-02-28T11:11:00;13.20;48.10
34837;DHT22;21053;50.848;4.652;2023-02-28T11:13:31;12.10;48.90
34837;DHT22;21053;50.848;4.652;2023-02-28T11:16:04;11.60;49.80
34837;DHT22;21053;50.848;4.652;2023-02-28T11:18:48;11.70;49.80
34837;DHT22;21053;50.848;4.652;2023-02-28T11:21:25;10.50;53.50
34837;DHT22;21053;50.848;4.652;2023-02-28T11:24:51;11.20;52.60
34837;DHT22;21053;50.848;4.652;2023-02-28T11:27:00;13.20;49.70
34837;DHT22;21053;50.848;4.652;2023-02-28T11:29:29;14.10;45.10
34837;DHT22;21053;50.848;4.652;2023-02-28T11:34:35;14.10;44.50
34837;DHT22;21053;50.848;4.652;2023-02-28T11:37:05;15.20;44.30
34837;DHT22;21053;50.848;4.652;2023-02-28T11:39:35;15.60;43.00
34837;DHT22;21053;50.848;4.652;2023-02-28T11:53:00;17.30;40.40
34837;DHT22;21053;50.848;4.652;2023-02-28T11:55:40;17.50;40.50
34837;DHT22;21053;50.848;4.652;2023-02-28T12:01:30;18.10;39.80
34837;DHT22;21053;50.848;4.652;2023-02-28T12:13:04;14.80;41.00
34837;DHT22;21053;50.848;4.652;2023-02-28T12:21:08;17.40;40.40
34837;DHT22;21053;50.848;4.652;2023-02-28T12:29:30;14.20;41.60
34837;DHT22;21053;50.848;4.652;2023-02-28T12:32:13;14.30;42.50
34837;DHT22;21053;50.848;4.652;2023-02-28T12:34:57;13.80;43.10
34837;DHT22;21053;50.848;4.652;2023-02-28T12:37:41;15.10;43.10
34837;DHT22;21053;50.848;4.652;2023-02-28T12:42:56;16.60;41.00
34837;DHT22;21053;50.848;4.652;2023-02-28T12:48:09;16.50;40.20
34837;DHT22;21053;50.848;4.652;2023-02-28T12:50:40;16.00;39.20
34837;DHT22;21053;50.848;4.652;2023-02-28T12:53:28;15.90;41.30
34837;DHT22;21053;50.848;4.652;2023-02-28T12:56:14;16.20;40.40
34837;DHT22;21053;50.848;4.652;2023-02-28T12:58:55;15.70;40.90
34837;DHT22;21053;50.848;4.652;2023-02-28T13:01:48;15.70;41.60
34837;DHT22;21053;50.848;4.652;2023-02-28T13:09:58;16.40;41.10
34837;DHT22;21053;50.848;4.652;2023-02-28T13:12:28;15.50;41.00
34837;DHT22;21053;50.848;4.652;2023-02-28T13:17:57;16.00;40.50
34837;DHT22;21053;50.848;4.652;2023-02-28T13:20:36;14.50;40.00
34837;DHT22;21053;50.848;4.652;2023-02-28T13:24:14;13.10;43.60
34837;DHT22;21053;50.848;4.652;2023-02-28T13:36:30;9.10;52.90
34837;DHT22;21053;50.848;4.652;2023-02-28T13:39:11;8.70;51.60
34837;DHT22;21053;50.848;4.652;2023-02-28T13:41:48;8.60;53.30
34837;DHT22;21053;50.848;4.652;2023-02-28T13:44:23;8.50;52.00
34837;DHT22;21053;50.848;4.652;2023-02-28T13:49:27;8.20;53.30
34837;DHT22;21053;50.848;4.652;2023-02-28T13:52:10;8.10;52.50
34837;DHT22;21053;50.848;4.652;2023-02-28T14:00:34;7.60;54.40
34837;DHT22;21053;50.848;4.652;2023-02-28T14:05:38;7.60;54.40
34837;DHT22;21053;50.848;4.652;2023-02-28T14:08:20;8.00;54.50
34837;DHT22;21053;50.848;4.652;2023-02-28T14:10:49;8.00;54.20
34837;DHT22;21053;50.848;4.652;2023-02-28T14:13:43;7.90;55.10
34837;DHT22;21053;50.848;4.652;2023-02-28T14:16:14;7.90;55.60
34837;DHT22;21053;50.848;4.652;2023-02-28T14:18:58;7.60;53.90
34837;DHT22;21053;50.848;4.652;2023-02-28T14:32:33;7.20;55.60
34837;DHT22;21053;50.848;4.652;2023-02-28T14:37:50;7.50;55.90
34837;DHT22;21053;50.848;4.652;2023-02-28T14:40:30;7.60;55.40
34837;DHT22;21053;50.848;4.652;2023-02-28T14:43:01;7.40;55.60
34837;DHT22;21053;50.848;4.652;2023-02-28T14:45:32;7.40;55.80
34837;DHT22;21053;50.848;4.652;2023-02-28T14:48:00;7.40;55.70
34837;DHT22;21053;50.848;4.652;2023-02-28T14:50:31;7.30;55.00
34837;DHT22;21053;50.848;4.652;2023-02-28T14:53:01;7.20;57.00
34837;DHT22;21053;50.848;4.652;2023-02-28T14:56:49;7.10;55.90
34837;DHT22;21053;50.848;4.652;2023-02-28T14:59:32;7.10;56.00
34837;DHT22;21053;50.848;4.652;2023-02-28T15:02:21;7.20;56.40
34837;DHT22;21053;50.848;4.652;2023-02-28T15:05:10;7.00;55.70
34837;DHT22;21053;50.848;4.652;2023-02-28T15:07:47;6.90;56.30
34837;DHT22;21053;50.848;4.652;2023-02-28T15:10:24;6.60;56.80
34837;DHT22;21053;50.848;4.652;2023-02-28T15:13:01;6.70;57.10
34837;DHT22;21053;50.848;4.652;2023-02-28T15:15:44;6.70;58.00
34837;DHT22;21053;50.848;4.652;2023-02-28T15:18:28;6.60;58.30
34837;DHT22;21053;50.848;4.652;2023-02-28T15:21:02;6.70;56.50
34837;DHT22;21053;50.848;4.652;2023-02-28T15:23:30;6.70;58.00
34837;DHT22;21053;50.848;4.652;2023-02-28T15:25:59;6.60;58.10
34837;DHT22;21053;50.848;4.652;2023-02-28T15:28:25;6.60;57.30
34837;DHT22;21053;50.848;4.652;2023-02-28T15:30:54;6.50;57.40
34837;DHT22;21053;50.848;4.652;2023-02-28T15:33:25;6.40;58.80
34837;DHT22;21053;50.848;4.652;2023-02-28T15:35:51;6.30;59.50
34837;DHT22;21053;50.848;4.652;2023-02-28T15:38:25;6.50;59.20
34837;DHT22;21053;50.848;4.652;2023-02-28T15:40:56;6.60;59.30
34837;DHT22;21053;50.848;4.652;2023-02-28T15:43:37;6.60;59.30
34837;DHT22;21053;50.848;4.652;2023-02-28T15:46:13;6.50;59.60
34837;DHT22;21053;50.848;4.652;2023-02-28T15:48:55;6.50;59.10
34837;DHT22;21053;50.848;4.652;2023-02-28T15:51:32;6.50;59.50
34837;DHT22;21053;50.848;4.652;2023-02-28T15:54:06;6.20;60.70
34837;DHT22;21053;50.848;4.652;2023-02-28T15:56:44;6.20;60.00
34837;DHT22;21053;50.848;4.652;2023-02-28T15:59:22;6.20;61.10
34837;DHT22;21053;50.848;4.652;2023-02-28T16:02:16;6.10;61.90
34837;DHT22;21053;50.848;4.652;2023-02-28T16:07:41;6.10;60.10
34837;DHT22;21053;50.848;4.652;2023-02-28T16:10:08;5.90;62.60
34837;DHT22;21053;50.848;4.652;2023-02-28T16:12:37;5.90;61.70
34837;DHT22;21053;50.848;4.652;2023-02-28T16:15:17;5.90;60.60
34837;DHT22;21053;50.848;4.652;2023-02-28T16:17:46;5.90;61.90
34837;DHT22;21053;50.848;4.652;2023-02-28T16:20:22;5.80;61.20
34837;DHT22;21053;50.848;4.652;2023-02-28T16:22:50;5.80;62.30
34837;DHT22;21053;50.848;4.652;2023-02-28T16:25:23;5.80;63.20
34837;DHT22;21053;50.848;4.652;2023-02-28T16:27:52;5.80;62.70
34837;DHT22;21053;50.848;4.652;2023-02-28T16:30:28;5.80;62.00
34837;DHT22;21053;50.848;4.652;2023-02-28T16:32:59;5.90;63.30
34837;DHT22;21053;50.848;4.652;2023-02-28T16:35:24;5.90;62.50
34837;DHT22;21053;50.848;4.652;2023-02-28T16:37:51;5.80;62.30
34837;DHT22;21053;50.848;4.652;2023-02-28T16:40:20;5.90;62.00
34837;DHT22;21053;50.848;4.652;2023-02-28T16:42:49;5.60;62.90
34837;DHT22;21053;50.848;4.652;2023-02-28T16:45:24;5.50;63.80
34837;DHT22;21053;50.848;4.652;2023-02-28T16:47:50;5.60;64.20
34837;DHT22;21053;50.848;4.652;2023-02-28T16:50:20;5.60;64.00
34837;DHT22;21053;50.848;4.652;2023-02-28T16:52:48;5.60;64.40
34837;DHT22;21053;50.848;4.652;2023-02-28T16:55:15;5.50;64.00
34837;DHT22;21053;50.848;4.652;2023-02-28T16:57:42;5.30;63.60
34837;DHT22;21053;50.848;4.652;2023-02-28T17:00:12;5.40;65.10
34837;DHT22;21053;50.848;4.652;2023-02-28T17:02:40;5.20;63.40
34837;DHT22;21053;50.848;4.652;2023-02-28T17:05:06;5.30;65.00
34837;DHT22;21053;50.848;4.652;2023-02-28T17:07:33;5.40;64.10
34837;DHT22;21053;50.848;4.652;2023-02-28T17:12:34;5.40;65.00
34837;DHT22;21053;50.848;4.652;2023-02-28T17:15:01;5.30;64.80
34837;DHT22;21053;50.848;4.652;2023-02-28T17:17:29;5.20;65.60
34837;DHT22;21053;50.848;4.652;2023-02-28T17:19:55;5.20;66.60
34837;DHT22;21053;50.848;4.652;2023-02-28T17:22:24;5.20;67.60
34837;DHT22;21053;50.848;4.652;2023-02-28T17:27:23;5.10;65.90
34837;DHT22;21053;50.848;4.652;2023-02-28T17:29:48;5.00;67.50
34837;DHT22;21053;50.848;4.652;2023-02-28T17:32:14;4.90;68.00
34837;DHT22;21053;50.848;4.652;2023-02-28T17:34:41;4.80;68.50
34837;DHT22;21053;50.848;4.652;2023-02-28T17:37:09;4.80;68.90
34837;DHT22;21053;50.848;4.652;2023-02-28T17:39:36;4.80;68.60
34837;DHT22;21053;50.848;4.652;2023-02-28T17:42:02;4.90;68.70
34837;DHT22;21053;50.848;4.652;2023-02-28T17:44:30;4.80;68.80
34837;DHT22;21053;50.848;4.652;2023-02-28T17:46:58;4.70;68.40
34837;DHT22;21053;50.848;4.652;2023-02-28T17:49:27;4.70;68.90
34837;DHT22;21053;50.848;4.652;2023-02-28T17:51:53;4.60;69.80
34837;DHT22;21053;50.848;4.652;2023-02-28T17:54:19;4.60;69.70
34837;DHT22;21053;50.848;4.652;2023-02-28T17:56:48;5.80;72.70
34837;DHT22;21053;50.848;4.652;2023-02-28T17:59:14;4.30;74.00
34837;DHT22;21053;50.848;4.652;2023-02-28T18:01:42;4.20;73.00
34837;DHT22;21053;50.848;4.652;2023-02-28T18:04:10;4.20;73.20
34837;DHT22;21053;50.848;4.652;2023-02-28T18:06:44;4.20;73.00
34837;DHT22;21053;50.848;4.652;2023-02-28T18:09:15;4.30;71.90
34837;DHT22;21053;50.848;4.652;2023-02-28T18:11:44;4.30;72.30
34837;DHT22;21053;50.848;4.652;2023-02-28T18:14:12;4.20;73.40
34837;DHT22;21053;50.848;4.652;2023-02-28T18:16:41;4.00;72.20
34837;DHT22;21053;50.848;4.652;2023-02-28T18:19:11;4.00;72.90
34837;DHT22;21053;50.848;4.652;2023-02-28T18:21:47;4.00;75.30
34837;DHT22;21053;50.848;4.652;2023-02-28T18:24:13;4.20;75.90
34837;DHT22;21053;50.848;4.652;2023-02-28T18:26:40;4.20;75.80
34837;DHT22;21053;50.848;4.652;2023-02-28T18:29:14;4.30;75.30
34837;DHT22;21053;50.848;4.652;2023-02-28T18:31:44;4.10;72.60
34837;DHT22;21053;50.848;4.652;2023-02-28T18:34:10;4.00;74.80
34837;DHT22;21053;50.848;4.652;2023-02-28T18:36:39;4.00;74.00